createdAt,value
2023-01-21T00:01:01.902Z,0.14
2023-01-21T00:03:29.247Z,0.11
2023-01-21T00:05:57.810Z,0.10
2023-01-21T00:08:25.544Z,0.10
2023-01-21T00:10:52.768Z,0.09
2023-01-21T00:13:19.998Z,0.06
2023-01-21T00:15:52.135Z,0.05
2023-01-21T00:18:19.683Z,0.08
2023-01-21T00:20:46.589Z,0.07
2023-01-21T00:23:14.756Z,0.09
2023-01-21T00:25:41.907Z,0.10
2023-01-21T00:28:09.462Z,0.08
2023-01-21T00:30:36.677Z,0.07
2023-01-21T00:33:06.140Z,0.08
2023-01-21T00:35:34.503Z,0.09
2023-01-21T00:38:01.782Z,0.09
2023-01-21T00:40:30.239Z,0.09
2023-01-21T00:42:58.201Z,0.10
2023-01-21T00:45:25.250Z,0.10
2023-01-21T00:47:57.720Z,0.10
2023-01-21T00:50:27.023Z,0.07
2023-01-21T00:52:54.374Z,0.05
2023-01-21T00:55:23.160Z,0.06
2023-01-21T00:57:52.778Z,0.03
2023-01-21T01:00:20.533Z,0.03
2023-01-21T01:02:54.587Z,0.03
2023-01-21T01:05:21.900Z,0.01
2023-01-21T01:07:50.173Z,0.02
2023-01-21T01:10:17.748Z,0.03
2023-01-21T01:12:45.144Z,0.05
2023-01-21T01:15:12.269Z,0.07
2023-01-21T01:17:41.348Z,0.07
2023-01-21T01:20:09.511Z,0.06
2023-01-21T01:22:36.448Z,0.06
2023-01-21T01:25:08.927Z,0.07
2023-01-21T01:27:36.624Z,0.06
2023-01-21T01:30:06.090Z,0.02
2023-01-21T01:32:33.284Z,0.02
2023-01-21T01:35:00.296Z,0.01
2023-01-21T01:37:32.261Z,-0.01
2023-01-21T01:40:05.331Z,-0.01
2023-01-21T01:42:32.911Z,-0.03
2023-01-21T01:45:27.681Z,-0.04
2023-01-21T01:48:00.164Z,-0.06
2023-01-21T01:50:35.247Z,-0.07
2023-01-21T01:53:02.456Z,-0.05
2023-01-21T01:55:31.097Z,-0.03
2023-01-21T01:57:58.908Z,-0.02
2023-01-21T02:00:26.163Z,-0.04
2023-01-21T02:03:12.563Z,-0.07
2023-01-21T02:05:41.150Z,-0.12
2023-01-21T02:08:08.172Z,-0.13
2023-01-21T02:10:42.834Z,-0.11
2023-01-21T02:13:10.087Z,-0.10
2023-01-21T02:16:31.181Z,-0.10
2023-01-21T02:19:01.303Z,-0.12
2023-01-21T02:21:40.843Z,-0.15
2023-01-21T02:24:26.634Z,-0.15
2023-01-21T02:27:30.190Z,-0.13
2023-01-21T02:30:07.445Z,-0.18
2023-01-21T02:33:01.601Z,-0.23
2023-01-21T02:35:46.958Z,-0.24
2023-01-21T02:38:28.777Z,-0.24
2023-01-21T02:41:43.949Z,-0.27
2023-01-21T02:44:18.883Z,-0.23
2023-01-21T02:46:52.419Z,-0.22
2023-01-21T02:49:28.918Z,-0.23
2023-01-21T02:51:55.793Z,-0.23
2023-01-21T02:54:38.714Z,-0.22
2023-01-21T02:57:37.730Z,-0.24
2023-01-21T03:00:13.332Z,-0.24
2023-01-21T03:02:46.651Z,-0.26
2023-01-21T03:05:19.642Z,-0.26
2023-01-21T03:07:48.238Z,-0.27
2023-01-21T03:10:18.779Z,-0.30
2023-01-21T03:13:18.867Z,-0.30
2023-01-21T03:16:06.880Z,-0.26
2023-01-21T03:18:50.340Z,-0.27
2023-01-21T03:21:19.338Z,-0.25
2023-01-21T03:23:47.923Z,-0.22
2023-01-21T03:26:17.832Z,-0.24
2023-01-21T03:28:46.018Z,-0.27
2023-01-21T03:31:20.714Z,-0.25
2023-01-21T03:33:48.510Z,-0.26
2023-01-21T03:36:32.111Z,-0.25
2023-01-21T03:38:59.218Z,-0.24
2023-01-21T03:41:31.739Z,-0.20
2023-01-21T03:43:58.760Z,-0.23
2023-01-21T03:46:43.902Z,-0.26
2023-01-21T03:49:41.992Z,-0.30
2023-01-21T03:52:09.029Z,-0.32
2023-01-21T03:54:36.458Z,-0.38
2023-01-21T03:57:04.053Z,-0.40
2023-01-21T03:59:32.113Z,-0.38
2023-01-21T04:01:59.082Z,-0.35
2023-01-21T04:04:28.540Z,-0.36
2023-01-21T04:06:57.949Z,-0.40
2023-01-21T04:09:25.332Z,-0.42
2023-01-21T04:11:54.434Z,-0.44
2023-01-21T04:14:21.538Z,-0.42
2023-01-21T04:16:48.795Z,-0.41
2023-01-21T04:19:16.143Z,-0.40
2023-01-21T04:21:43.217Z,-0.40
2023-01-21T04:24:12.035Z,-0.37
2023-01-21T04:26:44.251Z,-0.35
2023-01-21T04:29:15.104Z,-0.37
2023-01-21T04:31:44.210Z,-0.38
2023-01-21T04:34:11.297Z,-0.37
2023-01-21T04:36:39.494Z,-0.35
2023-01-21T04:39:06.558Z,-0.37
2023-01-21T04:41:38.823Z,-0.35
2023-01-21T04:44:11.709Z,-0.37
2023-01-21T04:46:41.429Z,-0.36
2023-01-21T04:49:08.572Z,-0.36
2023-01-21T04:51:38.180Z,-0.35
2023-01-21T04:54:05.437Z,-0.36
2023-01-21T04:56:32.883Z,-0.37
2023-01-21T04:59:00.033Z,-0.37
2023-01-21T05:01:27.851Z,-0.40
2023-01-21T05:03:54.983Z,-0.41
2023-01-21T05:06:23.128Z,-0.43
2023-01-21T05:08:51.814Z,-0.39
2023-01-21T05:11:19.481Z,-0.37
2023-01-21T05:13:47.233Z,-0.35
2023-01-21T05:16:20.072Z,-0.32
2023-01-21T05:18:48.235Z,-0.30
2023-01-21T05:21:15.316Z,-0.27
2023-01-21T05:23:47.401Z,-0.30
2023-01-21T05:26:14.448Z,-0.36
2023-01-21T05:28:41.374Z,-0.39
2023-01-21T05:31:08.637Z,-0.40
2023-01-21T05:33:45.515Z,-0.45
2023-01-21T05:36:17.531Z,-0.44
2023-01-21T05:38:44.852Z,-0.47
2023-01-21T05:41:19.161Z,-0.47
2023-01-21T05:43:46.238Z,-0.45
2023-01-21T05:46:13.379Z,-0.39
2023-01-21T05:48:40.772Z,-0.39
2023-01-21T05:51:08.232Z,-0.44
2023-01-21T05:53:35.071Z,-0.40
2023-01-21T05:56:01.962Z,-0.37
2023-01-21T05:58:29.117Z,-0.35
2023-01-21T06:00:56.673Z,-0.34
2023-01-21T06:03:23.855Z,-0.35
2023-01-21T06:05:53.242Z,-0.34
2023-01-21T06:08:20.785Z,-0.29
2023-01-21T06:10:47.692Z,-0.32
2023-01-21T06:13:14.988Z,-0.27
2023-01-21T06:15:42.119Z,-0.27
2023-01-21T06:18:14.615Z,-0.28
2023-01-21T06:20:41.959Z,-0.30
2023-01-21T06:23:12.721Z,-0.25
2023-01-21T06:25:40.418Z,-0.18
2023-01-21T06:28:08.477Z,-0.14
2023-01-21T06:30:36.645Z,-0.14
2023-01-21T06:33:03.718Z,-0.09
2023-01-21T06:35:36.649Z,-0.11
2023-01-21T06:38:03.489Z,-0.17
2023-01-21T06:40:36.260Z,-0.14
2023-01-21T06:43:03.304Z,-0.13
2023-01-21T06:45:30.339Z,-0.10
2023-01-21T06:47:57.276Z,-0.09
2023-01-21T06:50:24.284Z,-0.08
2023-01-21T06:52:51.147Z,-0.09
2023-01-21T06:55:18.619Z,-0.06
2023-01-21T06:57:46.105Z,-0.05
2023-01-21T07:00:13.767Z,-0.03
2023-01-21T07:02:40.741Z,-0.02
2023-01-21T07:05:07.972Z,-0.03
2023-01-21T07:07:35.006Z,-0.01
2023-01-21T07:10:02.686Z,0.03
2023-01-21T07:12:29.999Z,-0.02
2023-01-21T07:14:57.044Z,-0.06
2023-01-21T07:17:24.065Z,-0.06
2023-01-21T07:19:51.043Z,-0.03
2023-01-21T07:22:17.922Z,0.02
2023-01-21T07:24:44.854Z,0.09
2023-01-21T07:27:12.275Z,0.14
2023-01-21T07:29:39.204Z,0.13
2023-01-21T07:32:06.516Z,0.12
2023-01-21T07:34:33.567Z,0.10
2023-01-21T07:37:00.500Z,0.07
2023-01-21T07:39:27.598Z,0.09
2023-01-21T07:41:54.819Z,0.13
2023-01-21T07:44:23.481Z,0.14
2023-01-21T07:46:55.611Z,0.18
2023-01-21T07:49:22.789Z,0.18
2023-01-21T07:51:49.814Z,0.20
2023-01-21T07:54:22.036Z,0.24
2023-01-21T07:56:49.412Z,0.28
2023-01-21T07:59:21.541Z,0.34
2023-01-21T08:01:53.515Z,0.41
2023-01-21T08:04:20.450Z,0.40
2023-01-21T08:06:47.320Z,0.39
2023-01-21T08:09:14.387Z,0.46
2023-01-21T08:11:43.477Z,0.54
2023-01-21T08:14:10.401Z,0.54
2023-01-21T08:16:37.752Z,0.57
2023-01-21T08:19:04.776Z,0.58
2023-01-21T08:21:32.301Z,0.63
2023-01-21T08:23:59.224Z,0.68
2023-01-21T08:26:26.258Z,0.69
2023-01-21T08:28:54.515Z,0.68
2023-01-21T08:31:21.505Z,0.66
2023-01-21T08:33:48.420Z,0.69
2023-01-21T08:36:16.434Z,0.76
2023-01-21T08:38:49.039Z,0.79
2023-01-21T08:41:17.304Z,0.82
2023-01-21T08:43:49.356Z,0.83
2023-01-21T08:46:16.440Z,0.89
2023-01-21T08:48:43.375Z,1.00
2023-01-21T08:51:10.624Z,1.04
2023-01-21T08:53:37.558Z,1.09
2023-01-21T08:56:04.617Z,1.15
2023-01-21T08:58:39.349Z,1.17
2023-01-21T09:01:07.724Z,1.20
2023-01-21T09:03:35.055Z,1.25
2023-01-21T09:06:08.020Z,1.31
2023-01-21T09:08:36.049Z,1.33
2023-01-21T09:11:03.232Z,1.39
2023-01-21T09:13:32.990Z,1.46
2023-01-21T09:16:00.560Z,1.54
2023-01-21T09:18:29.369Z,1.65
2023-01-21T09:21:03.805Z,1.59
2023-01-21T09:23:34.171Z,1.67
2023-01-21T09:26:06.615Z,1.75
2023-01-21T09:28:35.512Z,1.83
2023-01-21T09:31:04.732Z,1.85
2023-01-21T09:33:34.218Z,1.90
2023-01-21T09:36:03.311Z,1.95
2023-01-21T09:38:30.409Z,2.04
2023-01-21T09:41:18.915Z,2.17
2023-01-21T09:44:16.069Z,2.20
2023-01-21T09:47:02.095Z,2.18
2023-01-21T09:49:33.039Z,2.32
2023-01-21T09:52:22.287Z,2.38
2023-01-21T09:54:49.157Z,2.36
2023-01-21T09:57:40.024Z,2.55
2023-01-21T10:00:44.697Z,2.70
2023-01-21T10:03:48.051Z,2.66
2023-01-21T10:06:19.902Z,2.67
2023-01-21T10:08:46.948Z,2.77
2023-01-21T10:11:19.867Z,2.81
2023-01-21T10:14:03.496Z,2.90
2023-01-21T10:16:41.726Z,2.95
2023-01-21T10:19:22.066Z,3.02
2023-01-21T10:21:56.571Z,2.92
2023-01-21T10:24:25.147Z,3.00
2023-01-21T10:26:52.859Z,3.35
2023-01-21T10:29:22.341Z,3.48
2023-01-21T10:31:53.812Z,3.71
2023-01-21T10:34:20.708Z,3.85
2023-01-21T10:36:47.854Z,3.91
2023-01-21T10:39:36.001Z,4.08
2023-01-21T10:42:27.133Z,4.30
2023-01-21T10:44:59.823Z,4.83
2023-01-21T10:47:29.655Z,5.51
2023-01-21T10:50:04.281Z,6.04
2023-01-21T10:52:56.426Z,6.67
2023-01-21T10:55:32.661Z,7.36
2023-01-21T10:58:21.300Z,8.15
2023-01-21T11:00:48.339Z,8.08
2023-01-21T11:03:40.924Z,7.96
2023-01-21T11:06:10.387Z,7.81
2023-01-21T11:08:38.074Z,7.78
2023-01-21T15:55:54.671Z,2.13
2023-01-21T15:58:34.455Z,2.20
2023-01-21T16:01:05.656Z,2.14
2023-01-21T16:03:44.770Z,2.09
2023-01-21T16:06:26.277Z,2.03
2023-01-21T16:09:04.557Z,1.99
2023-01-21T16:11:57.913Z,1.96
2023-01-21T16:14:52.023Z,1.92
2023-01-21T16:17:34.181Z,1.92
2023-01-21T16:20:01.119Z,1.89
2023-01-21T16:22:30.313Z,1.85
2023-01-21T16:25:00.636Z,1.82
2023-01-21T16:27:30.457Z,1.85
2023-01-21T16:29:58.417Z,1.83
2023-01-21T16:32:26.434Z,1.78
2023-01-21T16:34:53.419Z,1.69
2023-01-21T16:37:56.846Z,1.67
2023-01-21T16:40:24.265Z,1.63
2023-01-21T16:43:24.251Z,1.62
2023-01-21T16:45:55.935Z,1.60
2023-01-21T16:48:27.596Z,1.61
2023-01-21T16:50:54.728Z,1.58
2023-01-21T16:53:23.531Z,1.57
2023-01-21T16:55:55.299Z,1.55
2023-01-21T16:58:32.659Z,1.53
2023-01-21T17:01:11.295Z,1.51
2023-01-21T17:03:38.747Z,1.34
2023-01-21T17:06:23.066Z,1.29
2023-01-21T17:09:16.912Z,1.23
2023-01-21T17:11:44.894Z,1.11
2023-01-21T17:14:13.624Z,1.08
2023-01-21T17:16:40.511Z,1.10
2023-01-21T17:19:18.744Z,1.09
2023-01-21T17:21:49.414Z,1.08
2023-01-21T17:24:22.438Z,1.01
2023-01-21T17:26:51.599Z,1.01
2023-01-21T17:29:30.699Z,0.96
2023-01-21T17:32:24.858Z,0.93
2023-01-21T17:35:11.613Z,0.93
2023-01-21T17:37:44.151Z,0.91
2023-01-21T17:40:30.291Z,0.86
2023-01-21T17:42:58.320Z,0.83
2023-01-21T17:45:28.582Z,0.84
2023-01-21T17:48:08.696Z,0.87
2023-01-21T17:50:37.803Z,0.86
2023-01-21T17:53:06.753Z,0.87
2023-01-21T17:55:38.028Z,0.88
2023-01-21T17:58:52.173Z,0.86
2023-01-21T18:01:20.173Z,0.88
2023-01-21T18:03:47.568Z,0.88
2023-01-21T18:06:16.654Z,0.86
2023-01-21T18:08:43.750Z,0.82
2023-01-21T18:11:15.140Z,0.81
2023-01-21T18:13:41.956Z,0.79
2023-01-21T18:16:08.862Z,0.80
2023-01-21T18:18:37.991Z,0.80
2023-01-21T18:21:05.928Z,0.76
2023-01-21T18:23:33.090Z,0.68
2023-01-21T18:26:00.199Z,0.66
2023-01-21T18:28:31.071Z,0.67
2023-01-21T18:30:59.089Z,0.68
2023-01-21T18:33:26.460Z,0.75
2023-01-21T18:35:53.966Z,0.82
2023-01-21T18:38:26.529Z,0.82
2023-01-21T18:40:56.674Z,0.82
2023-01-21T18:43:24.861Z,0.85
2023-01-21T18:45:54.065Z,0.89
2023-01-21T18:48:26.968Z,0.87
2023-01-21T18:50:58.040Z,0.86
2023-01-21T18:53:25.336Z,0.87
2023-01-21T18:55:55.004Z,0.83
2023-01-21T18:58:23.329Z,0.84
2023-01-21T19:00:55.745Z,0.78
2023-01-21T19:03:22.636Z,0.84
2023-01-21T19:05:50.471Z,0.85
2023-01-21T19:08:24.445Z,0.82
2023-01-21T19:10:51.328Z,0.80
2023-01-21T19:13:19.215Z,0.81
2023-01-21T19:15:47.404Z,0.84
2023-01-21T19:18:15.647Z,0.85
2023-01-21T19:20:42.959Z,0.84
2023-01-21T19:23:15.237Z,0.82
2023-01-21T19:26:01.144Z,0.75
2023-01-21T19:28:27.990Z,0.73
2023-01-21T19:30:55.595Z,0.71
2023-01-21T19:33:22.739Z,0.65
2023-01-21T19:35:50.022Z,0.68
2023-01-21T19:38:18.593Z,0.75
2023-01-21T19:40:46.222Z,0.79
2023-01-21T19:43:14.034Z,0.82
2023-01-21T19:45:44.446Z,0.85
2023-01-21T19:48:12.521Z,0.84
2023-01-21T19:50:39.616Z,0.82
2023-01-21T19:53:06.807Z,0.78
2023-01-21T19:55:35.572Z,0.82
2023-01-21T19:58:04.224Z,0.84
2023-01-21T20:00:33.778Z,0.87
2023-01-21T20:03:00.812Z,0.87
2023-01-21T20:05:29.654Z,0.74
2023-01-21T20:07:57.215Z,0.66
2023-01-21T20:10:29.553Z,0.64
2023-01-21T20:12:56.697Z,0.65
2023-01-21T20:15:38.747Z,0.67
2023-01-21T20:18:25.388Z,0.70
2023-01-21T20:20:52.901Z,0.66
2023-01-21T20:23:21.345Z,0.63
2023-01-21T20:25:55.667Z,0.64
2023-01-21T20:28:50.665Z,0.67
2023-01-21T20:31:17.837Z,0.68
2023-01-21T20:33:45.714Z,0.63
2023-01-21T20:36:20.783Z,0.58
2023-01-21T20:38:47.816Z,0.62
2023-01-21T20:41:19.896Z,0.56
2023-01-21T20:43:47.020Z,0.55
2023-01-21T20:46:19.694Z,0.58
2023-01-21T20:48:47.544Z,0.58
2023-01-21T20:51:14.802Z,0.56
2023-01-21T20:53:41.861Z,0.51
2023-01-21T20:56:17.525Z,0.56
2023-01-21T20:58:47.167Z,0.59
2023-01-21T21:01:15.295Z,0.52
2023-01-21T21:03:47.239Z,0.48
2023-01-21T21:06:30.663Z,0.41
2023-01-21T21:08:57.706Z,0.40
2023-01-21T21:11:24.723Z,0.38
2023-01-21T21:13:52.293Z,0.39
2023-01-21T21:16:31.338Z,0.36
2023-01-21T21:19:00.001Z,0.42
2023-01-21T21:21:27.359Z,0.43
2023-01-21T21:23:59.531Z,0.41
2023-01-21T21:26:28.686Z,0.35
2023-01-21T21:28:56.854Z,0.38
2023-01-21T21:31:29.749Z,0.35
2023-01-21T21:33:56.937Z,0.30
2023-01-21T21:36:24.507Z,0.31
2023-01-21T21:38:57.049Z,0.36
2023-01-21T21:41:43.371Z,0.39
2023-01-21T21:44:15.773Z,0.41
2023-01-21T21:47:01.916Z,0.37
2023-01-21T21:49:29.121Z,0.43
2023-01-21T21:51:56.655Z,0.45
2023-01-21T21:54:23.460Z,0.47
2023-01-21T21:56:50.490Z,0.42
2023-01-21T21:59:17.318Z,0.39
2023-01-21T22:01:44.221Z,0.37
2023-01-21T22:04:16.173Z,0.34
2023-01-21T22:06:43.209Z,0.39
2023-01-21T22:09:15.165Z,0.36
2023-01-21T22:11:42.369Z,0.32
2023-01-21T22:14:14.419Z,0.30
2023-01-21T22:16:41.424Z,0.33
2023-01-21T22:19:08.510Z,0.35
2023-01-21T22:21:35.327Z,0.35
2023-01-21T22:24:08.292Z,0.38
2023-01-21T22:26:35.573Z,0.38
2023-01-21T22:29:03.301Z,0.39
2023-01-21T22:31:36.511Z,0.46
2023-01-21T22:34:04.730Z,0.54
2023-01-21T22:36:31.642Z,0.58
2023-01-21T22:38:58.908Z,0.58
2023-01-21T22:41:31.115Z,0.54
2023-01-21T22:43:57.921Z,0.55
2023-01-21T22:46:30.972Z,0.53
2023-01-21T22:48:58.285Z,0.57
2023-01-21T22:51:25.284Z,0.60
2023-01-21T22:53:52.755Z,0.64
2023-01-21T22:56:25.410Z,0.69
2023-01-21T22:58:55.293Z,0.76
2023-01-21T23:01:30.658Z,0.74
2023-01-21T23:04:03.444Z,0.74
2023-01-21T23:06:30.590Z,0.74
2023-01-21T23:08:57.853Z,0.75
2023-01-21T23:11:29.940Z,0.78
2023-01-21T23:13:57.107Z,0.75
2023-01-21T23:16:23.981Z,0.77
2023-01-21T23:18:56.305Z,0.84
2023-01-21T23:21:23.378Z,0.89
2023-01-21T23:23:55.422Z,0.87
2023-01-21T23:26:27.659Z,0.87
2023-01-21T23:28:55.762Z,0.74
2023-01-21T23:31:27.330Z,0.69
2023-01-21T23:34:00.785Z,0.68
2023-01-21T23:36:27.673Z,0.67
2023-01-21T23:38:55.547Z,0.66
2023-01-21T23:41:24.662Z,0.59
2023-01-21T23:43:52.110Z,0.59
2023-01-21T23:46:21.240Z,0.60
2023-01-21T23:48:48.132Z,0.60
2023-01-21T23:51:16.239Z,0.66
2023-01-21T23:53:51.319Z,0.70
2023-01-21T23:56:24.610Z,0.74
2023-01-21T23:58:51.897Z,0.81
